createdAt,value
2019-04-05T00:00:17.342Z,46.24
2019-04-05T00:02:47.104Z,46.34
2019-04-05T00:05:16.975Z,46.07
2019-04-05T00:07:46.840Z,45.96
2019-04-05T00:10:16.821Z,45.97
2019-04-05T00:12:47.090Z,46.18
2019-04-05T00:15:16.969Z,45.97
2019-04-05T00:17:46.723Z,46.02
2019-04-05T00:20:16.575Z,45.79
2019-04-05T00:22:46.348Z,45.75
2019-04-05T00:25:16.118Z,45.85
2019-04-05T00:27:45.903Z,46.07
2019-04-05T00:30:15.863Z,46.21
2019-04-05T00:32:45.732Z,46.19
2019-04-05T00:35:15.623Z,46.32
2019-04-05T00:37:45.392Z,46.43
2019-04-05T00:40:15.348Z,46.57
2019-04-05T00:42:45.216Z,46.70
2019-04-05T00:45:27.242Z,46.73
2019-04-05T00:47:46.574Z,46.87
2019-04-05T00:50:16.492Z,46.87
2019-04-05T00:52:46.352Z,46.94
2019-04-05T00:55:16.252Z,46.79
2019-04-05T00:57:46.123Z,46.82
2019-04-05T01:00:16.031Z,46.72
2019-04-05T01:02:45.803Z,46.45
2019-04-05T01:05:15.527Z,46.40
2019-04-05T01:07:45.294Z,46.47
2019-04-05T01:10:15.134Z,46.51
2019-04-05T01:12:45.705Z,46.39
2019-04-05T01:15:15.538Z,46.51
2019-04-05T01:17:45.314Z,46.39
2019-04-05T01:20:15.145Z,46.57
2019-04-05T01:22:45.410Z,46.49
2019-04-05T01:25:15.248Z,46.56
2019-04-05T01:27:44.986Z,46.50
2019-04-05T01:30:15.261Z,46.40
2019-04-05T01:32:45.018Z,46.64
2019-04-05T01:35:14.780Z,46.46
2019-04-05T01:37:44.553Z,46.59
2019-04-05T01:40:14.939Z,46.59
2019-04-05T01:42:44.792Z,46.80
2019-04-05T01:45:15.064Z,46.64
2019-04-05T01:47:45.007Z,46.86
2019-04-05T01:50:14.778Z,46.78
2019-04-05T01:52:44.637Z,46.97
2019-04-05T01:55:14.508Z,47.13
2019-04-05T01:57:44.262Z,47.18
2019-04-05T02:00:14.635Z,47.38
2019-04-05T02:02:44.401Z,47.66
2019-04-05T02:05:14.982Z,47.74
2019-04-05T02:07:44.851Z,47.80
2019-04-05T02:10:14.667Z,47.90
2019-04-05T02:12:44.520Z,48.07
2019-04-05T02:15:25.490Z,48.26
2019-04-05T02:17:55.341Z,48.26
2019-04-05T02:20:25.114Z,48.22
2019-04-05T02:22:55.044Z,48.29
2019-04-05T02:25:24.822Z,48.35
2019-04-05T02:27:54.578Z,48.46
2019-04-05T02:30:24.434Z,48.66
2019-04-05T02:32:54.195Z,48.84
2019-04-05T02:35:23.947Z,49.10
2019-04-05T02:37:53.832Z,49.15
2019-04-05T02:40:24.102Z,49.37
2019-04-05T02:42:53.976Z,49.43
2019-04-05T02:45:23.745Z,49.58
2019-04-05T02:47:55.553Z,49.38
2019-04-05T02:50:26.117Z,49.73
2019-04-05T02:52:56.753Z,49.95
2019-04-05T02:55:26.513Z,50.10
2019-04-05T02:57:56.279Z,50.04
2019-04-05T03:00:26.042Z,50.35
2019-04-05T03:02:55.781Z,50.50
2019-04-05T03:05:25.541Z,50.61
2019-04-05T03:07:55.409Z,50.87
2019-04-05T03:10:53.362Z,50.83
2019-04-05T03:13:27.217Z,51.01
2019-04-05T03:15:59.492Z,51.31
2019-04-05T03:18:29.373Z,51.42
2019-04-05T03:21:02.364Z,51.66
2019-04-05T03:23:32.262Z,51.71
2019-04-05T03:26:04.156Z,51.95
2019-04-05T03:28:34.626Z,52.17
2019-04-05T03:31:06.049Z,52.39
2019-04-05T03:33:35.974Z,52.72
2019-04-05T03:36:05.816Z,52.77
2019-04-05T03:38:35.676Z,52.94
2019-04-05T03:41:05.540Z,53.05
2019-04-05T03:43:35.272Z,53.13
2019-04-05T03:46:05.158Z,53.47
2019-04-05T03:48:34.978Z,53.67
2019-04-05T03:51:04.944Z,53.92
2019-04-05T03:53:34.669Z,54.11
2019-04-05T03:56:04.530Z,54.35
2019-04-05T03:58:34.362Z,54.60
2019-04-05T04:01:04.637Z,54.72
2019-04-05T04:03:34.476Z,54.78
2019-04-05T04:06:04.349Z,54.87
2019-04-05T04:08:34.164Z,55.25
2019-04-05T04:11:03.923Z,55.00
2019-04-05T04:13:33.742Z,55.22
2019-04-05T04:16:03.612Z,55.43
2019-04-05T04:18:33.543Z,55.56
2019-04-05T04:21:09.337Z,55.68
2019-04-05T04:23:39.100Z,55.77
2019-04-05T04:26:08.868Z,55.81
2019-04-05T04:28:38.729Z,55.84
2019-04-05T04:31:08.492Z,55.89
2019-04-05T04:33:38.385Z,55.93
2019-04-05T04:36:08.279Z,56.08
2019-04-05T04:38:38.310Z,56.07
2019-04-05T04:41:08.094Z,56.15
2019-04-05T04:43:37.859Z,56.23
2019-04-05T04:46:08.264Z,56.21
2019-04-05T04:48:38.037Z,56.27
2019-04-05T04:51:07.914Z,56.22
2019-04-05T04:53:37.787Z,56.16
2019-04-05T04:56:08.066Z,56.00
2019-04-05T04:58:37.931Z,55.96
2019-04-05T05:01:07.826Z,55.97
2019-04-05T05:03:37.592Z,55.97
2019-04-05T05:06:07.390Z,55.88
2019-04-05T05:08:37.139Z,55.63
2019-04-05T05:11:14.419Z,55.63
2019-04-05T05:13:38.497Z,55.48
2019-04-05T05:16:08.321Z,55.66
2019-04-05T05:18:38.339Z,55.66
2019-04-05T05:21:08.078Z,55.61
2019-04-05T05:23:37.925Z,55.28
2019-04-05T05:26:07.684Z,55.16
2019-04-05T05:28:37.544Z,55.22
2019-04-05T05:31:07.310Z,55.20
2019-04-05T05:33:37.173Z,55.14
2019-04-05T05:36:10.257Z,54.92
2019-04-05T05:38:38.630Z,54.36
2019-04-05T05:41:08.504Z,54.12
2019-04-05T05:43:38.322Z,54.17
2019-04-05T05:46:08.188Z,53.29
2019-04-05T05:48:38.066Z,52.67
2019-04-05T05:51:07.922Z,52.54
2019-04-05T05:53:37.678Z,51.90
2019-04-05T05:56:07.547Z,51.57
2019-04-05T05:58:37.307Z,51.12
2019-04-05T06:01:07.068Z,50.50
2019-04-05T06:03:36.932Z,50.03
2019-04-05T06:06:06.796Z,50.18
2019-04-05T06:08:36.665Z,49.71
2019-04-05T06:11:06.515Z,49.48
2019-04-05T06:13:36.263Z,49.46
2019-04-05T06:16:06.140Z,49.70
2019-04-05T06:18:35.998Z,49.14
2019-04-05T06:21:05.781Z,49.24
2019-04-05T06:23:35.650Z,49.36
2019-04-05T06:26:05.409Z,49.38
2019-04-05T06:28:35.220Z,49.66
2019-04-05T06:31:05.346Z,49.49
2019-04-05T06:33:35.963Z,49.52
2019-04-05T06:36:05.887Z,49.36
2019-04-05T06:38:35.769Z,49.17
2019-04-05T06:41:05.537Z,48.87
2019-04-05T06:43:35.408Z,48.79
2019-04-05T06:46:05.436Z,48.57
2019-04-05T06:48:35.453Z,48.18
2019-04-05T06:51:05.214Z,47.88
2019-04-05T06:53:35.004Z,47.69
2019-04-05T06:56:04.875Z,47.38
2019-04-05T06:58:34.737Z,47.27
2019-04-05T07:01:04.496Z,47.02
2019-04-05T07:03:34.527Z,47.12
2019-04-05T07:06:04.276Z,47.25
2019-04-05T07:08:34.198Z,47.14
2019-04-05T07:11:04.062Z,46.82
2019-04-05T07:13:33.976Z,46.60
2019-04-05T07:16:03.745Z,46.22
2019-04-05T07:18:36.201Z,45.87
2019-04-05T07:21:05.345Z,44.57
2019-04-05T07:23:35.138Z,43.94
2019-04-05T07:26:05.001Z,43.51
2019-04-05T07:28:34.794Z,42.39
2019-04-05T07:31:04.652Z,42.89
2019-04-05T07:33:34.761Z,42.45
2019-04-05T07:36:04.670Z,42.49
2019-04-05T07:38:34.599Z,42.55
2019-04-05T07:41:04.385Z,41.41
2019-04-05T07:43:34.233Z,40.94
2019-04-05T07:46:03.997Z,41.07
2019-04-05T07:48:44.114Z,41.05
2019-04-05T07:51:05.408Z,40.88
2019-04-05T07:53:35.272Z,40.86
2019-04-05T07:56:05.137Z,40.53
2019-04-05T07:58:34.908Z,40.72
2019-04-05T08:01:05.282Z,39.15
2019-04-05T08:03:35.145Z,39.60
2019-04-05T08:06:05.006Z,39.39
2019-04-05T08:08:41.152Z,39.46
2019-04-05T08:11:10.937Z,39.33
2019-04-05T08:13:41.052Z,39.28
2019-04-05T08:16:11.247Z,38.72
2019-04-05T08:18:41.189Z,38.71
2019-04-05T08:21:10.977Z,38.80
2019-04-05T08:23:40.867Z,38.45
2019-04-05T08:26:10.711Z,38.53
2019-04-05T08:28:40.488Z,38.06
2019-04-05T08:31:11.100Z,38.06
2019-04-05T08:33:41.847Z,38.07
2019-04-05T08:36:11.835Z,38.11
2019-04-05T08:38:41.701Z,37.85
2019-04-05T08:41:11.609Z,37.52
2019-04-05T08:43:41.376Z,37.47
2019-04-05T08:46:11.285Z,37.54
2019-04-05T08:48:41.161Z,36.46
2019-04-05T08:51:11.048Z,36.94
2019-04-05T08:53:40.826Z,36.16
2019-04-05T08:56:10.696Z,36.51
2019-04-05T08:58:40.568Z,36.22
2019-04-05T09:01:10.414Z,35.79
2019-04-05T09:03:40.185Z,36.37
2019-04-05T09:06:09.918Z,36.00
2019-04-05T09:08:39.789Z,36.07
2019-04-05T09:11:09.627Z,35.33
2019-04-05T09:13:39.483Z,35.05
2019-04-05T09:16:11.618Z,35.10
2019-04-05T09:18:40.786Z,35.00
2019-04-05T09:21:10.729Z,35.12
2019-04-05T09:23:40.484Z,34.76
2019-04-05T09:26:10.221Z,34.08
2019-04-05T09:28:48.116Z,33.86
2019-04-05T09:31:17.937Z,33.21
2019-04-05T09:33:47.820Z,31.99
2019-04-05T09:36:17.543Z,33.11
2019-04-05T09:38:47.344Z,32.89
2019-04-05T09:41:17.206Z,32.48
2019-04-05T09:43:47.092Z,32.46
2019-04-05T09:46:16.852Z,32.77
2019-04-05T09:48:46.631Z,33.38
2019-04-05T09:51:16.397Z,32.77
2019-04-05T09:53:46.248Z,32.95
2019-04-05T09:56:16.118Z,33.19
2019-04-05T09:58:45.864Z,33.62
2019-04-05T10:01:15.746Z,33.00
2019-04-05T10:03:45.585Z,32.84
2019-04-05T10:06:17.065Z,33.05
2019-04-05T10:08:47.124Z,32.97
2019-04-05T10:11:17.033Z,33.40
2019-04-05T10:13:46.907Z,33.35
2019-04-05T10:16:16.684Z,32.35
2019-04-05T10:18:46.557Z,32.59
2019-04-05T10:21:16.283Z,32.22
2019-04-05T10:23:46.195Z,32.50
2019-04-05T10:26:16.022Z,32.99
2019-04-05T10:28:46.219Z,32.54
2019-04-05T10:31:16.055Z,32.60
2019-04-05T10:33:45.856Z,31.52
2019-04-05T10:36:15.596Z,31.38
2019-04-05T10:38:45.659Z,31.25
2019-04-05T10:41:15.519Z,31.92
2019-04-05T10:43:45.351Z,31.68
2019-04-05T10:46:15.240Z,31.87
2019-04-05T10:48:44.973Z,31.30
2019-04-05T10:51:14.850Z,30.66
2019-04-05T10:53:44.786Z,30.64
2019-04-05T10:56:14.575Z,31.35
2019-04-05T10:58:44.545Z,30.06
2019-04-05T11:01:14.391Z,30.00
2019-04-05T11:03:44.257Z,30.27
2019-04-05T11:06:14.016Z,30.55
2019-04-05T11:08:43.881Z,30.39
2019-04-05T11:11:13.631Z,30.24
2019-04-05T11:13:43.539Z,30.38
2019-04-05T11:16:13.397Z,30.71
2019-04-05T11:18:45.087Z,30.57
2019-04-05T11:21:16.238Z,30.66
2019-04-05T11:23:46.172Z,30.89
2019-04-05T11:26:16.050Z,31.33
2019-04-05T11:28:45.843Z,31.44
2019-04-05T11:31:15.710Z,31.47
2019-04-05T11:33:45.597Z,31.35
2019-04-05T11:36:15.468Z,31.67
2019-04-05T11:38:45.467Z,31.04
2019-04-05T11:41:15.230Z,31.01
2019-04-05T11:43:45.115Z,31.16
2019-04-05T11:46:14.877Z,31.49
2019-04-05T11:48:44.733Z,31.16
2019-04-05T11:51:14.629Z,31.11
2019-04-05T11:53:44.365Z,30.77
2019-04-05T11:56:15.262Z,31.17
2019-04-05T11:58:48.625Z,31.17
2019-04-05T12:01:23.273Z,30.68
2019-04-05T12:03:51.985Z,30.14
2019-04-05T12:06:22.098Z,29.98
2019-04-05T12:08:51.866Z,30.57
2019-04-05T12:11:21.723Z,30.05
2019-04-05T12:13:51.501Z,31.11
2019-04-05T12:16:21.328Z,30.84
2019-04-05T12:18:51.215Z,30.97
2019-04-05T12:21:21.190Z,30.03
2019-04-05T12:23:51.093Z,29.25
2019-04-05T12:26:20.840Z,28.29
2019-04-05T12:28:50.703Z,28.89
2019-04-05T12:31:21.356Z,27.50
2019-04-05T12:33:52.375Z,27.92
2019-04-05T12:36:22.881Z,28.23
2019-04-05T12:38:54.271Z,28.28
2019-04-05T12:41:24.320Z,28.61
2019-04-05T12:43:54.215Z,28.34
2019-04-05T12:46:24.070Z,28.28
2019-04-05T12:48:53.946Z,28.13
2019-04-05T12:51:23.816Z,28.59
2019-04-05T12:53:56.408Z,28.33
2019-04-05T12:56:26.530Z,27.81
2019-04-05T12:58:56.834Z,27.05
2019-04-05T13:01:26.740Z,28.19
2019-04-05T13:03:58.686Z,28.06
2019-04-05T13:06:28.146Z,27.68
2019-04-05T13:08:57.969Z,27.41
2019-04-05T13:11:27.851Z,27.54
2019-04-05T13:13:57.574Z,27.32
2019-04-05T13:16:27.343Z,27.51
2019-04-05T13:19:00.587Z,27.92
2019-04-05T13:21:32.112Z,27.57
2019-04-05T13:24:00.338Z,27.37
2019-04-05T13:26:30.240Z,27.91
2019-04-05T13:29:00.196Z,28.86
2019-04-05T13:31:30.375Z,28.44
2019-04-05T13:34:00.241Z,28.67
2019-04-05T13:36:30.027Z,27.85
2019-04-05T13:39:00.615Z,28.09
2019-04-05T13:41:32.185Z,27.89
2019-04-05T13:44:02.337Z,27.37
2019-04-05T13:46:32.288Z,27.07
2019-04-05T13:49:02.055Z,27.60
2019-04-05T13:51:32.164Z,27.17
2019-04-05T13:54:02.087Z,27.72
2019-04-05T13:56:31.991Z,27.48
2019-04-05T13:59:01.838Z,26.97
2019-04-05T14:01:31.709Z,25.93
2019-04-05T14:04:01.478Z,26.58
2019-04-05T14:06:31.356Z,26.14
2019-04-05T14:09:01.229Z,27.71
2019-04-05T14:11:31.096Z,28.53
2019-04-05T14:14:00.955Z,27.86
2019-04-05T14:16:30.785Z,27.44
2019-04-05T14:19:00.660Z,28.15
2019-04-05T14:21:39.808Z,27.30
2019-04-05T14:24:04.217Z,27.50
2019-04-05T14:26:33.624Z,27.50
2019-04-05T14:29:04.153Z,27.99
2019-04-05T14:31:34.110Z,29.21
2019-04-05T14:34:04.003Z,28.92
2019-04-05T14:36:33.819Z,29.44
2019-04-05T14:39:07.183Z,29.38
2019-04-05T14:41:38.461Z,29.20
2019-04-05T14:44:09.135Z,28.76
2019-04-05T14:46:40.226Z,28.71
2019-04-05T14:49:10.660Z,28.94
2019-04-05T14:51:52.641Z,28.88
2019-04-05T14:54:13.361Z,29.18
2019-04-05T14:56:44.232Z,29.14
2019-04-05T14:59:15.005Z,29.29
2019-04-05T15:01:47.088Z,29.09
2019-04-05T15:04:16.471Z,29.55
2019-04-05T15:06:46.332Z,29.76
2019-04-05T15:09:16.620Z,29.74
2019-04-05T15:11:46.777Z,29.59
2019-04-05T15:14:16.680Z,28.95
2019-04-05T15:16:46.424Z,29.16
2019-04-05T15:19:16.323Z,29.10
2019-04-05T15:21:46.084Z,28.86
2019-04-05T15:24:16.798Z,28.65
2019-04-05T15:26:47.016Z,28.47
2019-04-05T15:29:16.904Z,28.49
2019-04-05T15:31:46.789Z,28.87
2019-04-05T15:34:16.593Z,28.78
2019-04-05T15:36:46.461Z,28.82
2019-04-05T15:39:16.450Z,28.79
2019-04-05T15:41:46.209Z,28.93
2019-04-05T15:44:16.086Z,29.07
2019-04-05T15:46:45.856Z,28.93
2019-04-05T15:49:15.721Z,29.32
2019-04-05T15:51:45.586Z,29.26
2019-04-05T15:54:15.424Z,32.40
2019-04-05T15:56:45.330Z,38.72
2019-04-05T15:59:15.186Z,43.43
2019-04-05T16:01:44.961Z,45.12
2019-04-05T16:04:14.712Z,45.28
2019-04-05T16:06:44.431Z,42.37
2019-04-05T16:09:15.841Z,40.80
2019-04-05T16:11:45.665Z,50.56
2019-04-05T16:14:15.479Z,47.82
2019-04-05T16:16:45.340Z,49.97
2019-04-05T16:19:15.105Z,49.34
2019-04-05T16:21:44.869Z,42.42
2019-04-05T16:24:14.717Z,47.76
2019-04-05T16:26:44.511Z,49.12
2019-04-05T16:29:14.251Z,48.95
2019-04-05T16:31:44.135Z,48.50
2019-04-05T16:34:14.006Z,49.31
2019-04-05T16:36:43.829Z,46.83
2019-04-05T16:39:15.429Z,49.79
2019-04-05T16:41:45.258Z,47.19
2019-04-05T16:44:15.142Z,48.41
2019-04-05T16:46:45.012Z,48.09
2019-04-05T16:49:14.895Z,45.25
2019-04-05T16:51:44.758Z,46.52
2019-04-05T16:54:14.648Z,43.09
2019-04-05T16:56:44.524Z,42.89
2019-04-05T16:59:14.428Z,44.07
2019-04-05T17:01:44.193Z,42.80
2019-04-05T17:04:13.957Z,43.17
2019-04-05T17:06:43.731Z,44.01
2019-04-05T17:09:13.454Z,41.82
2019-04-05T17:11:43.360Z,42.47
2019-04-05T17:14:13.195Z,41.74
2019-04-05T17:16:42.967Z,41.84
2019-04-05T17:19:12.827Z,42.09
2019-04-05T17:21:42.625Z,42.58
2019-04-05T17:24:12.501Z,41.52
2019-04-05T17:26:42.292Z,41.87
2019-04-05T17:29:12.163Z,41.72
2019-04-05T17:31:42.052Z,42.57
2019-04-05T17:34:11.930Z,43.47
2019-04-05T17:36:41.752Z,43.45
2019-04-05T17:39:11.549Z,43.56
2019-04-05T17:41:42.874Z,43.81
2019-04-05T17:44:12.757Z,44.14
2019-04-05T17:46:42.622Z,43.50
2019-04-05T17:49:12.417Z,44.69
2019-04-05T17:51:42.196Z,44.64
2019-04-05T17:54:11.949Z,44.77
2019-04-05T17:56:41.721Z,44.75
2019-04-05T17:59:11.574Z,44.81
2019-04-05T18:01:41.385Z,44.64
2019-04-05T18:04:11.253Z,44.53
2019-04-05T18:06:41.165Z,45.28
2019-04-05T18:09:11.012Z,45.24
2019-04-05T18:11:41.105Z,44.29
2019-04-05T18:14:10.847Z,44.85
2019-04-05T18:16:40.727Z,44.44
2019-04-05T18:20:01.460Z,43.87
2019-04-05T22:14:19.952Z,46.08
2019-04-05T22:16:49.826Z,46.56
2019-04-05T22:19:19.557Z,46.64
2019-04-05T22:21:49.329Z,47.22
2019-04-05T22:24:19.510Z,46.96
2019-04-05T22:26:49.246Z,47.04
2019-04-05T22:29:19.137Z,47.18
2019-04-05T22:31:48.878Z,47.40
2019-04-05T22:34:18.667Z,47.48
2019-04-05T22:36:48.610Z,47.85
2019-04-05T22:39:18.329Z,47.81
2019-04-05T22:41:48.120Z,48.00
2019-04-05T22:44:17.944Z,48.10
2019-04-05T22:46:47.846Z,48.48
2019-04-05T22:49:17.678Z,48.15
2019-04-05T22:51:47.756Z,48.32
2019-04-05T22:54:17.623Z,48.49
2019-04-05T22:56:47.456Z,48.42
2019-04-05T22:59:17.402Z,48.83
2019-04-05T23:01:47.320Z,48.79
2019-04-05T23:04:17.283Z,48.92
2019-04-05T23:06:47.157Z,48.92
2019-04-05T23:09:17.061Z,48.93
2019-04-05T23:11:46.930Z,49.12
2019-04-05T23:14:16.831Z,49.24
2019-04-05T23:16:47.024Z,49.22
2019-04-05T23:19:16.855Z,49.19
2019-04-05T23:21:46.765Z,49.60
2019-04-05T23:24:16.518Z,49.56
2019-04-05T23:26:46.420Z,49.35
2019-04-05T23:29:16.275Z,49.52
2019-04-05T23:31:46.191Z,49.59
2019-04-05T23:34:16.132Z,49.72
2019-04-05T23:36:46.044Z,49.83
2019-04-05T23:39:15.884Z,49.70
2019-04-05T23:41:45.766Z,49.70
2019-04-05T23:44:15.525Z,49.92
2019-04-05T23:46:45.477Z,49.87
2019-04-05T23:49:16.716Z,50.03
2019-04-05T23:51:46.560Z,49.92
2019-04-05T23:54:16.473Z,49.83
2019-04-05T23:56:46.206Z,49.64
2019-04-05T23:59:15.994Z,49.54
